Time;durP1;ratioP1;P1;durP2;ratioP2;P2;SDS_P1;SDS_P2;PMS_P1;PMS_P2;Temp;Humidity;BMP_temperature;BMP_pressure;BME280_temperature;BME280_humidity;BME280_pressure;Samples;Min_cycle;Max_cycle;Signal;HPM_P1;HPM_P2
2024/03/28 00:00:16;;;;;;;7.57;6.85;;;;;;;6.99;86.72;95604.66;5072431;28;20055;-70
2024/03/28 00:02:41;;;;;;;7.70;7.00;;;;;;;7.23;86.34;95610.00;5068544;28;20076;-70
2024/03/28 00:05:07;;;;;;;7.68;6.97;;;;;;;7.14;86.89;95619.75;5035957;28;20078;-71
2024/03/28 00:07:32;;;;;;;7.38;6.72;;;;;;;7.08;85.30;95612.84;5064024;28;20021;-71
2024/03/28 00:09:57;;;;;;;8.38;7.57;;;;;;;7.21;85.70;95622.88;5034520;28;20123;-71
2024/03/28 00:12:23;;;;;;;8.50;7.70;;;;;;;7.24;85.93;95623.09;5070962;28;20028;-71
2024/03/28 00:14:48;;;;;;;8.70;7.90;;;;;;;7.19;86.29;95619.72;5072091;28;20042;-71
2024/03/28 00:17:13;;;;;;;8.60;7.90;;;;;;;7.18;85.97;95607.41;5071448;28;20016;-71
2024/03/28 00:19:39;;;;;;;8.32;7.63;;;;;;;7.23;85.58;95604.66;5035421;28;20041;-70
2024/03/28 00:22:04;;;;;;;9.75;8.68;;;;;;;7.16;85.77;95593.50;5069841;28;20029;-69
2024/03/28 00:24:30;;;;;;;9.63;8.73;;;;;;;7.22;85.68;95589.66;5055209;28;20162;-74
2024/03/28 00:26:55;;;;;;;9.27;8.38;;;;;;;7.16;85.97;95588.16;5054823;28;20028;-73
2024/03/28 00:29:21;;;;;;;9.93;8.93;;;;;;;7.29;86.18;95598.16;5055121;28;20059;-73
2024/03/28 00:31:46;;;;;;;9.20;8.30;;;;;;;7.37;85.24;95589.50;5055337;28;20020;-72
2024/03/28 00:34:11;;;;;;;9.45;8.57;;;;;;;7.32;85.53;95586.88;5071788;28;20123;-72
2024/03/28 00:36:37;;;;;;;10.05;9.15;;;;;;;7.33;85.78;95583.09;5037888;28;20032;-72
2024/03/28 00:39:02;;;;;;;10.32;9.35;;;;;;;7.37;85.46;95605.56;5071660;28;20086;-73
2024/03/28 00:41:28;;;;;;;11.38;10.15;;;;;;;7.34;85.96;95606.94;5052008;28;20464;-72
2024/03/28 00:43:53;;;;;;;11.35;10.25;;;;;;;7.45;85.34;95612.94;5072879;28;20072;-72
2024/03/28 00:46:19;;;;;;;11.50;10.40;;;;;;;7.46;86.01;95606.50;5021219;28;20073;-73
2024/03/28 00:48:44;;;;;;;11.07;10.02;;;;;;;7.34;86.18;95606.13;5054804;28;20039;-73
2024/03/28 00:51:09;;;;;;;12.57;11.38;;;;;;;7.38;86.89;95605.25;5072623;28;20047;-74
2024/03/28 00:53:35;;;;;;;11.13;10.13;;;;;;;7.53;86.05;95604.28;5033861;28;20040;-74
2024/03/28 00:56:00;;;;;;;12.68;11.48;;;;;;;7.35;85.82;95599.69;5059153;28;20024;-73
2024/03/28 00:58:26;;;;;;;11.05;10.00;;;;;;;7.40;86.51;95605.75;5054238;28;20045;-74
2024/03/28 01:00:51;;;;;;;11.43;10.32;;;;;;;7.40;87.18;95605.75;5067953;28;20032;-74
2024/03/28 01:03:17;;;;;;;11.15;10.15;;;;;;;7.42;86.06;95602.81;5035169;28;20032;-74
2024/03/28 01:05:42;;;;;;;12.38;11.18;;;;;;;7.53;85.93;95614.97;5034516;28;20464;-73
2024/03/28 01:08:08;;;;;;;11.82;10.82;;;;;;;7.51;86.13;95617.16;5053990;28;20111;-73
2024/03/28 01:10:38;;;;;;;10.40;9.50;;;;;;;7.62;86.24;95629.31;5054362;28;20024;-71
2024/03/28 01:13:06;;;;;;;10.68;9.57;;;;;;;7.63;85.75;95625.56;5038339;28;20085;-72
2024/03/28 01:15:34;;;;;;;9.55;8.73;;;;;;;7.56;85.79;95625.91;5055147;28;20025;-71
2024/03/28 01:17:59;;;;;;;9.85;9.05;;;;;;;7.53;86.04;95620.34;5034110;28;20480;-71
2024/03/28 01:20:25;;;;;;;11.75;10.65;;;;;;;7.56;85.78;95609.06;5047678;28;20078;-71
2024/03/28 01:22:50;;;;;;;10.77;9.77;;;;;;;7.52;86.09;95597.31;5037447;28;20037;-71
2024/03/28 01:25:15;;;;;;;9.77;8.90;;;;;;;7.59;86.24;95597.75;5054061;28;20035;-70
2024/03/28 01:27:41;;;;;;;11.25;10.15;;;;;;;7.71;85.62;95611.50;5053876;28;20020;-70
2024/03/28 01:30:07;;;;;;;9.65;8.70;;;;;;;7.73;85.25;95598.63;5053225;28;20032;-71
2024/03/28 01:32:32;;;;;;;8.98;8.15;;;;;;;7.70;85.03;95599.22;5036044;28;20036;-70
2024/03/28 01:34:58;;;;;;;8.07;7.38;;;;;;;7.73;85.19;95598.63;5053873;28;20058;-71
2024/03/28 01:37:23;;;;;;;8.73;7.90;;;;;;;7.74;84.54;95583.34;5070048;28;20044;-72
2024/03/28 01:39:48;;;;;;;8.98;8.10;;;;;;;7.71;85.94;95589.28;5050600;28;20079;-72
2024/03/28 01:42:14;;;;;;;11.27;10.13;;;;;;;7.65;85.38;95564.47;5070671;28;20063;-74
2024/03/28 01:44:39;;;;;;;10.07;9.10;;;;;;;7.60;85.43;95559.19;5054032;28;20028;-74
2024/03/28 01:47:05;;;;;;;12.07;10.20;;;;;;;7.66;85.29;95560.69;5036690;28;20028;-73
2024/03/28 01:49:31;;;;;;;10.77;9.68;;;;;;;7.78;85.75;95579.81;5043047;28;20025;-73
2024/03/28 01:51:57;;;;;;;13.13;11.82;;;;;;;7.67;85.64;95567.66;5050697;28;20120;-73
2024/03/28 01:54:23;;;;;;;13.38;12.05;;;;;;;7.72;84.58;95564.09;5070748;28;20027;-73
2024/03/28 01:56:48;;;;;;;13.88;12.48;;;;;;;7.73;85.11;95566.47;5036830;28;20082;-72
2024/03/28 01:59:15;;;;;;;13.77;12.43;;;;;;;7.78;85.00;95566.41;5053693;28;20035;-72
2024/03/28 02:01:43;;;;;;;12.32;11.13;;;;;;;7.80;85.20;95571.47;5070277;28;20048;-73
2024/03/28 02:04:09;;;;;;;15.18;13.63;;;;;;;7.88;84.97;95566.25;5053552;28;20024;-72
2024/03/28 02:06:34;;;;;;;18.73;14.80;;;;;;;7.80;85.07;95564.22;5063573;28;20055;-72
2024/03/28 02:09:02;;;;;;;14.73;13.10;;;;;;;7.83;84.99;95574.38;5080404;23;20040;-75
2024/03/28 02:11:27;;;;;;;14.70;13.18;;;;;;;7.86;85.04;95579.16;5060195;28;20050;-75
2024/03/28 02:13:53;;;;;;;11.32;10.32;;;;;;;7.83;85.10;95574.38;5085170;28;20028;-75
2024/03/28 02:16:18;;;;;;;14.32;12.98;;;;;;;7.73;84.85;95555.75;5073872;28;20119;-75
2024/03/28 02:18:43;;;;;;;17.70;15.45;;;;;;;7.74;85.73;95562.72;5086045;28;20024;-75
2024/03/28 02:21:09;;;;;;;16.23;14.43;;;;;;;7.75;85.78;95575.00;5073506;28;20036;-75
2024/03/28 02:23:34;;;;;;;13.23;12.02;;;;;;;7.78;85.38;95565.59;5091513;28;20111;-75
2024/03/28 02:26:00;;;;;;;14.82;13.40;;;;;;;7.83;85.64;95570.88;5073697;28;20044;-75
2024/03/28 02:28:25;;;;;;;16.27;14.60;;;;;;;7.76;85.16;95571.25;5039745;28;20107;-75
2024/03/28 02:30:51;;;;;;;14.30;12.93;;;;;;;7.76;85.07;95560.53;5090377;28;20036;-75
2024/03/28 02:33:16;;;;;;;14.35;12.95;;;;;;;7.84;85.03;95567.13;5056852;28;20157;-78
2024/03/28 02:35:41;;;;;;;12.75;11.45;;;;;;;7.85;85.10;95558.81;5073651;28;20157;-76
2024/03/28 02:38:07;;;;;;;12.75;11.52;;;;;;;7.71;84.46;95520.44;5056352;28;20489;-77
2024/03/28 02:40:32;;;;;;;14.65;13.23;;;;;;;7.87;84.54;95556.63;5056753;28;20085;-80
2024/03/28 02:42:57;;;;;;;16.17;14.57;;;;;;;7.87;84.60;95535.19;5056875;28;20390;-77
2024/03/28 02:45:23;;;;;;;14.70;13.07;;;;;;;7.68;85.03;95531.72;5073417;28;20046;-77
2024/03/28 02:47:48;;;;;;;19.60;16.52;;;;;;;7.79;84.76;95559.97;5072957;28;20490;-78
2024/03/28 02:50:14;;;;;;;22.02;17.50;;;;;;;7.73;84.64;95546.94;5045355;28;20033;-75
2024/03/28 02:52:39;;;;;;;22.70;18.63;;;;;;;7.74;85.21;95568.09;5064872;28;20059;-75
2024/03/28 02:55:05;;;;;;;17.50;15.70;;;;;;;7.74;84.39;95541.28;5053345;28;20062;-75
2024/03/28 02:57:30;;;;;;;23.40;18.55;;;;;;;7.75;84.88;95552.81;5065708;28;20028;-75
2024/03/28 02:59:56;;;;;;;16.02;14.38;;;;;;;7.76;84.23;95555.19;5089957;28;20394;-77
2024/03/28 03:02:21;;;;;;;15.48;13.73;;;;;;;7.72;84.77;95554.19;5056622;28;20025;-78
2024/03/28 03:04:46;;;;;;;17.70;14.40;;;;;;;7.82;84.72;95559.38;5073594;28;20039;-76
2024/03/28 03:07:12;;;;;;;15.40;13.80;;;;;;;7.69;85.45;95544.03;5072876;28;20024;-75
2024/03/28 03:09:37;;;;;;;16.73;14.98;;;;;;;7.71;85.21;95551.78;5068910;28;20375;-75
2024/03/28 03:12:03;;;;;;;19.85;16.90;;;;;;;7.75;85.04;95542.88;5089985;28;20450;-76
2024/03/28 03:14:28;;;;;;;16.33;14.63;;;;;;;7.71;84.76;95536.50;5081798;28;20574;-76
2024/03/28 03:16:54;;;;;;;20.98;17.77;;;;;;;7.58;85.61;95521.19;5073535;28;20027;-76
2024/03/28 03:19:19;;;;;;;18.40;16.45;;;;;;;7.61;84.78;95516.03;5076452;28;20464;-76
2024/03/28 03:21:49;;;;;;;16.85;15.15;;;;;;;7.64;85.42;95520.00;5063454;28;20106;-75
2024/03/28 03:24:14;;;;;;;16.67;14.98;;;;;;;7.63;85.19;95518.44;5064248;28;20033;-76
2024/03/28 03:26:49;;;;;;;20.13;17.98;;;;;;;7.51;85.58;95504.69;5067792;28;20016;-76
2024/03/28 03:34:49;;;;;;;17.83;16.00;;;;;;;7.51;85.52;95500.09;5078911;28;20696;-76
2024/03/28 03:37:25;;;;;;;28.67;21.90;;;;;;;7.46;86.10;95507.44;5075978;28;20107;-76
2024/03/28 03:39:54;;;;;;;19.95;17.85;;;;;;;7.48;86.35;95510.63;5093284;28;20118;-76
2024/03/28 03:42:20;;;;;;;19.63;17.35;;;;;;;7.45;85.77;95516.53;5076187;28;20032;-75
2024/03/28 03:44:46;;;;;;;20.98;18.73;;;;;;;7.52;85.95;95533.03;5094280;28;20390;-75
2024/03/28 03:47:11;;;;;;;21.48;18.80;;;;;;;7.49;86.07;95544.34;5075664;28;20023;-75
2024/03/28 03:49:43;;;;;;;17.98;16.13;;;;;;;7.44;85.40;95555.94;5084614;28;20027;-76
2024/03/28 03:52:08;;;;;;;23.55;20.30;;;;;;;7.39;85.56;95531.09;5066511;28;20475;-76
2024/03/28 03:54:34;;;;;;;17.55;15.82;;;;;;;7.51;85.80;95547.53;5043569;28;20077;-76
2024/03/28 03:56:59;;;;;;;28.17;22.10;;;;;;;7.43;85.83;95529.44;5086246;28;20048;-76
2024/03/28 03:59:25;;;;;;;23.88;19.77;;;;;;;7.49;85.59;95549.72;5075170;28;20028;-75
2024/03/28 04:01:50;;;;;;;22.08;19.38;;;;;;;7.45;85.56;95537.97;5070897;28;20478;-76
2024/03/28 04:04:16;;;;;;;22.08;19.75;;;;;;;7.39;85.29;95533.78;5056036;28;20111;-77
2024/03/28 04:06:41;;;;;;;24.15;19.63;;;;;;;7.38;85.49;95532.16;5069737;28;20085;-75
2024/03/28 04:09:08;;;;;;;25.23;20.33;;;;;;;7.24;85.58;95520.59;5072139;28;20105;-77
2024/03/28 04:11:34;;;;;;;21.15;18.67;;;;;;;7.38;85.91;95537.53;5093241;28;20039;-76
2024/03/28 04:13:59;;;;;;;24.77;21.17;;;;;;;7.24;85.91;95532.09;5075737;28;20024;-77
2024/03/28 04:16:25;;;;;;;22.65;19.48;;;;;;;7.21;85.94;95531.91;5092589;28;20112;-76
2024/03/28 04:18:51;;;;;;;26.92;21.52;;;;;;;7.15;86.15;95533.03;5092387;28;20500;-77
2024/03/28 04:21:17;;;;;;;28.52;22.05;;;;;;;7.16;85.64;95523.94;5075524;28;20112;-76
2024/03/28 04:23:42;;;;;;;27.95;21.95;;;;;;;7.22;85.35;95544.97;5068789;28;20470;-76
2024/03/28 04:26:08;;;;;;;22.17;17.98;;;;;;;7.20;85.50;95541.78;5075295;28;20035;-76
2024/03/28 04:28:33;;;;;;;23.15;20.55;;;;;;;7.18;85.61;95533.25;5074020;28;20032;-76
2024/03/28 04:30:58;;;;;;;24.40;20.13;;;;;;;7.10;86.28;95541.13;5075450;28;20035;-76
2024/03/28 04:33:24;;;;;;;20.30;18.13;;;;;;;7.12;85.50;95539.75;5058451;28;20120;-76
2024/03/28 04:35:49;;;;;;;23.27;19.40;;;;;;;7.05;85.69;95538.53;5070652;28;20067;-77
2024/03/28 04:38:15;;;;;;;23.15;20.27;;;;;;;7.03;85.31;95548.69;5066085;28;20016;-76
2024/03/28 04:40:41;;;;;;;19.58;17.45;;;;;;;7.16;84.92;95566.75;5075112;28;20771;-76
2024/03/28 04:43:06;;;;;;;25.25;21.02;;;;;;;6.98;85.68;95561.06;5091818;28;20027;-76
2024/03/28 04:45:31;;;;;;;20.85;18.17;;;;;;;7.05;85.16;95565.28;5058298;28;20502;-76
2024/03/28 04:47:57;;;;;;;23.00;20.50;;;;;;;7.02;85.35;95565.84;5074358;28;20024;-77
2024/03/28 04:50:22;;;;;;;21.98;19.15;;;;;;;6.95;85.50;95555.50;5091843;28;20028;-76
2024/03/28 04:52:48;;;;;;;23.55;20.95;;;;;;;6.90;85.63;95548.34;5058211;28;20524;-76
2024/03/28 04:55:13;;;;;;;27.17;21.95;;;;;;;7.04;85.29;95571.72;5074960;28;20039;-76
2024/03/28 04:57:39;;;;;;;24.98;21.17;;;;;;;7.04;85.21;95561.00;5074305;28;20693;-77
2024/03/28 05:00:06;;;;;;;24.73;20.85;;;;;;;7.02;84.49;95560.50;5072841;28;20119;-78
2024/03/28 05:02:32;;;;;;;26.98;21.25;;;;;;;6.98;84.09;95561.06;5074786;28;20055;-77
2024/03/28 05:04:58;;;;;;;21.42;19.23;;;;;;;6.95;84.56;95561.63;5086425;28;20037;-77
2024/03/28 05:07:23;;;;;;;25.70;21.48;;;;;;;6.84;84.71;95560.16;5040819;28;20023;-77
2024/03/28 05:09:49;;;;;;;32.38;25.45;;;;;;;6.87;85.11;95574.84;5057226;28;20036;-77
2024/03/28 05:12:15;;;;;;;24.30;21.02;;;;;;;6.75;84.41;95556.53;5074554;28;20063;-77
2024/03/28 05:14:40;;;;;;;23.88;21.30;;;;;;;6.72;84.97;95557.09;5054440;28;20415;-76
2024/03/28 05:17:07;;;;;;;24.52;20.83;;;;;;;6.79;84.36;95567.47;5071144;28;20099;-78
2024/03/28 05:19:33;;;;;;;24.80;20.85;;;;;;;6.79;85.04;95572.81;5075822;28;20032;-78
2024/03/28 05:21:58;;;;;;;30.42;23.77;;;;;;;6.82;84.14;95567.66;5071466;28;20459;-77
2024/03/28 05:24:23;;;;;;;21.20;18.95;;;;;;;6.73;83.73;95564.03;5068956;28;20040;-76
2024/03/28 05:26:49;;;;;;;23.02;19.10;;;;;;;6.75;84.52;95561.06;5073895;28;20360;-76
2024/03/28 05:29:14;;;;;;;24.00;21.13;;;;;;;6.84;84.37;95576.22;5057322;28;20044;-76
2024/03/28 05:31:40;;;;;;;20.13;17.42;;;;;;;6.70;83.74;95563.78;5089589;28;20031;-75
2024/03/28 05:34:05;;;;;;;21.30;19.05;;;;;;;6.66;84.23;95563.56;5090890;28;20129;-75
2024/03/28 05:36:30;;;;;;;19.13;17.23;;;;;;;6.59;84.88;95547.06;5074538;28;20020;-76
2024/03/28 05:38:56;;;;;;;25.98;20.20;;;;;;;6.51;84.71;95549.59;5037368;28;20396;-76
2024/03/28 05:41:21;;;;;;;22.00;19.33;;;;;;;6.49;84.73;95536.47;5072073;28;20039;-75
2024/03/28 05:43:47;;;;;;;18.15;16.23;;;;;;;6.60;84.87;95564.72;5074018;28;20032;-75
2024/03/28 05:46:12;;;;;;;20.85;18.65;;;;;;;6.61;85.47;95577.00;5077390;28;20032;-76
2024/03/28 05:48:37;;;;;;;20.48;18.27;;;;;;;6.56;85.10;95558.31;5073383;28;20035;-77
2024/03/28 05:51:03;;;;;;;20.38;17.48;;;;;;;6.57;84.41;95551.09;5057036;28;20431;-76
2024/03/28 05:53:28;;;;;;;16.48;14.75;;;;;;;6.75;84.25;95561.88;5074281;28;20032;-78
2024/03/28 05:55:54;;;;;;;17.45;15.77;;;;;;;6.70;84.69;95543.19;5074856;28;20069;-78
2024/03/28 05:58:19;;;;;;;17.63;15.82;;;;;;;6.78;84.91;95545.25;5070792;28;20410;-78
2024/03/28 06:00:44;;;;;;;16.98;15.38;;;;;;;6.77;84.67;95540.19;5075660;28;20074;-78
2024/03/28 06:03:10;;;;;;;18.52;16.40;;;;;;;6.79;85.00;95532.69;5056372;28;20182;-79
2024/03/28 06:05:35;;;;;;;15.43;13.82;;;;;;;6.90;84.71;95542.19;5076003;28;20028;-78
2024/03/28 06:08:00;;;;;;;14.90;13.50;;;;;;;6.78;84.87;95518.50;5086601;28;20081;-79
2024/03/28 06:10:26;;;;;;;16.17;14.57;;;;;;;7.03;85.05;95551.38;5077224;28;20024;-78
2024/03/28 06:12:51;;;;;;;14.77;13.27;;;;;;;6.96;85.51;95539.16;5073872;28;20112;-78
2024/03/28 06:15:17;;;;;;;15.57;14.07;;;;;;;7.12;84.88;95555.03;5058683;28;20024;-78
2024/03/28 06:17:42;;;;;;;15.90;14.20;;;;;;;7.03;84.44;95535.31;5070497;28;20098;-78
2024/03/28 06:20:08;;;;;;;17.35;15.68;;;;;;;7.04;84.99;95527.03;5054323;28;20030;-78
2024/03/28 06:22:34;;;;;;;15.98;14.30;;;;;;;7.15;84.78;95554.44;5074579;28;20039;-78
2024/03/28 06:24:59;;;;;;;18.02;16.33;;;;;;;7.15;84.93;95555.25;5071543;28;20067;-78
2024/03/28 06:27:25;;;;;;;17.52;15.82;;;;;;;7.30;84.91;95567.63;5056458;28;20514;-78
2024/03/28 06:29:50;;;;;;;19.25;17.35;;;;;;;7.28;85.18;95548.41;5066236;28;20434;-78
2024/03/28 06:32:24;;;;;;;19.50;17.40;;;;;;;7.33;84.70;95542.94;5074930;28;20055;-78
2024/03/28 06:34:54;;;;;;;22.23;19.98;;;;;;;7.44;85.00;95558.59;5075350;28;20028;-78
2024/03/28 06:37:20;;;;;;;18.38;16.48;;;;;;;7.43;84.83;95556.19;5083674;28;20086;-78
2024/03/28 06:39:46;;;;;;;18.20;16.40;;;;;;;7.35;85.23;95532.78;5074934;28;20020;-78
2024/03/28 06:42:11;;;;;;;18.42;16.63;;;;;;;7.47;84.72;95533.91;5058655;28;20138;-78
2024/03/28 06:44:36;;;;;;;17.23;15.52;;;;;;;7.45;85.02;95509.31;5092282;28;20020;-78
2024/03/28 06:47:04;;;;;;;15.95;14.45;;;;;;;7.58;84.08;95507.78;5075469;28;20039;-78
2024/03/28 06:49:29;;;;;;;16.00;14.45;;;;;;;7.63;83.90;95523.78;5075455;28;20044;-78
2024/03/28 06:51:55;;;;;;;15.60;13.98;;;;;;;7.57;84.92;95515.03;5076095;28;20507;-78
2024/03/28 06:54:20;;;;;;;15.80;14.40;;;;;;;7.67;84.09;95508.72;5062961;28;20024;-78
2024/03/28 06:56:46;;;;;;;13.55;12.27;;;;;;;7.77;83.72;95492.47;5079247;28;20055;-78
2024/03/28 06:59:13;;;;;;;12.90;11.75;;;;;;;7.85;83.73;95515.13;5078954;28;20024;-79
2024/03/28 07:01:40;;;;;;;13.15;11.95;;;;;;;7.82;83.19;95508.47;5079133;28;20036;-79
2024/03/28 07:04:07;;;;;;;11.80;10.80;;;;;;;7.87;83.50;95502.22;5079763;28;20138;-78
2024/03/28 07:06:32;;;;;;;11.35;10.35;;;;;;;7.90;83.06;95507.81;5062162;28;20028;-78
2024/03/28 07:08:57;;;;;;;10.40;9.50;;;;;;;7.99;82.37;95521.31;5075993;28;20024;-79
2024/03/28 07:11:23;;;;;;;9.60;8.77;;;;;;;8.03;82.14;95519.66;5079292;28;20052;-78
2024/03/28 07:13:49;;;;;;;10.45;9.30;;;;;;;8.02;82.06;95504.66;5079265;28;20491;-78
2024/03/28 07:16:14;;;;;;;10.27;9.27;;;;;;;7.68;81.75;95443.34;5079218;28;20040;-78
2024/03/28 07:18:39;;;;;;;9.95;9.15;;;;;;;8.19;82.15;95513.75;5064679;28;20499;-78
2024/03/28 07:21:05;;;;;;;9.38;8.48;;;;;;;8.29;81.61;95516.28;5078118;28;20115;-78
2024/03/28 07:23:31;;;;;;;9.27;8.48;;;;;;;8.43;81.59;95526.22;5061679;28;20544;-77
2024/03/28 07:25:56;;;;;;;8.55;7.75;;;;;;;8.42;81.96;95524.66;5062296;28;20032;-80
2024/03/28 07:28:22;;;;;;;8.73;7.88;;;;;;;8.48;81.31;95523.44;5078470;28;20485;-79
2024/03/28 07:30:47;;;;;;;8.25;7.53;;;;;;;8.64;80.44;95538.16;5066957;28;20040;-80
2024/03/28 07:33:13;;;;;;;8.80;8.10;;;;;;;8.59;79.57;95530.25;5061752;28;20031;-80
2024/03/28 07:35:38;;;;;;;8.48;7.78;;;;;;;8.66;79.97;95536.00;5079336;28;20075;-80
2024/03/28 07:38:48;;;;;;;;;;;;;;;;;;;;;
2024/03/28 07:41:16;;;;;;;9.57;8.70;;;;;;;8.30;80.62;95453.53;5093193;28;20126;-80
2024/03/28 07:43:53;;;;;;;7.90;7.10;;;;;;;8.78;79.36;95517.50;5042774;28;20028;-81
2024/03/28 07:46:26;;;;;;;9.55;8.68;;;;;;;8.76;78.98;95551.91;5096508;28;20478;-80
2024/03/28 07:48:52;;;;;;;9.68;8.68;;;;;;;8.84;78.06;95560.06;5055520;28;20044;-79
2024/03/28 07:51:33;;;;;;;10.70;9.70;;;;;;;8.37;78.63;95489.88;5088547;28;20099;-81
2024/03/28 07:53:58;;;;;;;10.10;9.20;;;;;;;8.17;78.86;95465.00;5072973;28;20047;-79
2024/03/28 07:56:24;;;;;;;10.32;9.43;;;;;;;8.80;79.06;95564.41;5067445;28;20025;-78
2024/03/28 07:58:49;;;;;;;9.57;8.68;;;;;;;8.80;79.32;95552.88;5085606;28;20117;-80
2024/03/28 08:01:14;;;;;;;9.38;8.60;;;;;;;8.91;79.54;95546.25;5095869;28;20099;-79
2024/03/28 08:03:40;;;;;;;9.77;8.60;;;;;;;8.72;79.51;95502.63;5077630;28;20040;-78
2024/03/28 08:06:05;;;;;;;9.48;8.57;;;;;;;9.07;78.04;95549.41;5032772;23;20128;-72
2024/03/28 08:08:31;;;;;;;10.63;8.93;;;;;;;9.10;77.54;95546.13;5035538;28;20457;-74
2024/03/28 08:10:57;;;;;;;8.13;7.43;;;;;;;9.15;77.50;95544.13;5031596;28;20025;-73
2024/03/28 08:13:23;;;;;;;9.13;8.23;;;;;;;9.20;77.27;95557.44;5036632;28;20457;-73
2024/03/28 08:15:48;;;;;;;8.48;7.68;;;;;;;9.28;77.01;95555.97;5051665;28;20020;-73
2024/03/28 08:18:13;;;;;;;8.75;7.95;;;;;;;9.29;76.89;95566.38;5051441;28;20033;-74
2024/03/28 08:20:39;;;;;;;8.70;7.90;;;;;;;9.22;76.12;95547.19;5086072;22;20047;-79
2024/03/28 08:23:04;;;;;;;7.60;6.90;;;;;;;9.47;75.93;95565.50;5051334;28;20451;-80
2024/03/28 08:25:30;;;;;;;7.38;6.68;;;;;;;9.50;75.30;95567.56;5081696;28;20052;-79
2024/03/28 08:27:57;;;;;;;7.00;6.40;;;;;;;9.32;75.20;95525.50;5048965;28;20036;-80
2024/03/28 08:30:23;;;;;;;7.53;6.82;;;;;;;9.60;74.54;95567.34;5085639;28;20035;-79
2024/03/28 08:32:50;;;;;;;7.18;6.40;;;;;;;9.69;75.40;95560.16;5055696;28;20038;-80
2024/03/28 08:35:15;;;;;;;7.57;6.88;;;;;;;9.78;75.33;95540.63;5079133;28;20031;-78
2024/03/28 08:37:41;;;;;;;8.23;6.22;;;;;;;10.05;74.28;95559.34;5072217;28;20047;-74
2024/03/28 08:40:09;;;;;;;6.90;6.30;;;;;;;10.14;73.23;95562.91;5069709;28;20395;-79
2024/03/28 08:42:35;;;;;;;6.75;6.13;;;;;;;10.18;72.93;95545.06;5067043;28;20061;-79
2024/03/28 08:45:02;;;;;;;6.05;5.55;;;;;;;10.24;72.66;95546.53;5069347;28;20490;-79
2024/03/28 08:47:27;;;;;;;7.07;5.75;;;;;;;10.27;71.39;95527.06;5066743;28;20474;-79
2024/03/28 08:49:53;;;;;;;5.97;5.43;;;;;;;10.37;71.13;95518.75;5068515;28;20067;-79
2024/03/28 08:52:19;;;;;;;5.45;4.95;;;;;;;10.33;71.30;95509.72;5050974;28;20400;-79
2024/03/28 08:54:45;;;;;;;6.30;5.47;;;;;;;10.46;71.65;95508.81;5067631;28;20034;-79
2024/03/28 08:57:11;;;;;;;6.53;5.93;;;;;;;10.53;70.69;95509.19;5046142;28;20503;-79
2024/03/28 08:59:36;;;;;;;6.07;5.47;;;;;;;10.72;70.59;95523.19;5090119;28;20028;-79
2024/03/28 09:02:02;;;;;;;6.85;6.25;;;;;;;10.64;69.73;95521.25;5068813;28;20035;-78
2024/03/28 09:04:29;;;;;;;6.72;6.13;;;;;;;10.50;69.72;95536.72;5088483;28;20020;-79
2024/03/28 09:06:55;;;;;;;6.60;5.97;;;;;;;10.43;69.31;95558.66;5067491;28;20081;-76
2024/03/28 09:09:21;;;;;;;9.55;7.25;;;;;;;10.40;69.50;95586.19;5066960;28;20028;-79
2024/03/28 09:11:46;;;;;;;10.43;8.18;;;;;;;10.46;69.30;95604.88;5072510;28;20534;-78
2024/03/28 09:14:12;;;;;;;9.27;8.23;;;;;;;10.37;70.14;95612.91;5073383;28;20031;-79
2024/03/28 09:16:38;;;;;;;10.63;8.82;;;;;;;10.38;69.70;95620.66;5056690;28;20032;-80
2024/03/28 09:19:03;;;;;;;12.63;9.18;;;;;;;10.37;69.25;95650.56;5055947;28;20023;-78
2024/03/28 09:21:29;;;;;;;7.85;6.88;;;;;;;10.19;69.05;95659.59;5050527;28;20028;-79
2024/03/28 09:23:55;;;;;;;12.20;9.90;;;;;;;10.22;69.10;95659.00;5070691;28;20028;-79
2024/03/28 09:26:21;;;;;;;11.90;9.77;;;;;;;10.04;69.41;95668.78;5068500;28;20431;-79
2024/03/28 09:28:49;;;;;;;8.80;7.90;;;;;;;10.15;69.88;95678.22;5073247;28;20028;-78
2024/03/28 09:31:15;;;;;;;7.60;6.68;;;;;;;10.00;70.68;95667.78;5071430;28;20120;-80
2024/03/28 09:33:42;;;;;;;7.82;7.03;;;;;;;9.84;70.67;95653.09;5049865;28;20031;-78
2024/03/28 09:36:08;;;;;;;8.00;7.20;;;;;;;10.14;70.96;95689.31;5064849;28;20043;-79
2024/03/28 09:38:33;;;;;;;8.02;7.25;;;;;;;10.21;71.39;95705.81;5056376;28;20383;-79
2024/03/28 09:41:00;;;;;;;8.32;7.25;;;;;;;10.15;71.39;95691.69;5051480;28;20036;-79
2024/03/28 09:43:26;;;;;;;7.32;6.65;;;;;;;10.22;71.23;95712.81;5061080;28;20020;-79
2024/03/28 09:45:53;;;;;;;7.32;6.63;;;;;;;9.90;71.46;95686.03;5069354;28;20063;-79
2024/03/28 09:48:19;;;;;;;13.65;7.05;;;;;;;10.06;72.70;95738.41;5063400;28;20511;-78
2024/03/28 09:50:47;;;;;;;7.60;6.78;;;;;;;10.03;73.40;95730.94;5047779;28;20028;-78
2024/03/28 09:53:14;;;;;;;9.00;7.57;;;;;;;9.92;73.66;95746.47;5066090;28;20016;-79
2024/03/28 09:55:40;;;;;;;9.60;8.05;;;;;;;9.80;74.31;95761.50;5054468;28;20060;-78
2024/03/28 09:58:05;;;;;;;9.15;7.63;;;;;;;9.77;74.06;95762.09;5063900;28;20468;-80
2024/03/28 10:00:31;;;;;;;9.00;8.10;;;;;;;9.59;74.67;95780.69;5079338;28;20040;-79
2024/03/28 10:02:57;;;;;;;8.35;7.53;;;;;;;9.61;75.55;95808.06;5070550;28;20452;-79
2024/03/28 10:05:24;;;;;;;9.45;8.52;;;;;;;9.43;75.69;95792.81;5092441;28;20430;-79
2024/03/28 10:07:49;;;;;;;10.40;9.35;;;;;;;9.32;76.73;95780.66;5077223;28;20016;-80
2024/03/28 10:10:16;;;;;;;10.35;9.35;;;;;;;9.41;78.23;95813.81;5066393;28;20043;-78
2024/03/28 10:12:55;;;;;;;8.70;7.88;;;;;;;9.13;77.83;95804.06;5047670;28;20032;-78
2024/03/28 10:15:21;;;;;;;9.57;8.60;;;;;;;9.30;78.89;95819.63;5046281;28;20410;-78
2024/03/28 10:18:00;;;;;;;8.52;7.63;;;;;;;8.91;79.56;95818.09;5059471;28;20036;-78
2024/03/28 10:20:27;;;;;;;6.05;4.63;;;;;;;8.73;79.81;95800.13;5078802;28;20036;-79
2024/03/28 10:22:52;;;;;;;5.20;4.70;;;;;;;8.93;78.70;95832.06;5066502;28;20055;-78
2024/03/28 10:25:24;;;;;;;5.90;5.28;;;;;;;8.75;79.77;95806.00;5065175;28;20036;-79
2024/03/28 10:27:51;;;;;;;8.10;6.28;;;;;;;8.81;80.64;95820.16;5061879;28;20059;-77
2024/03/28 10:30:20;;;;;;;7.28;6.07;;;;;;;8.98;80.99;95828.50;5059432;28;20068;-79
2024/03/28 10:32:46;;;;;;;6.95;6.35;;;;;;;8.91;81.56;95817.31;5058663;28;20498;-79
2024/03/28 10:35:12;;;;;;;5.75;5.25;;;;;;;8.90;81.18;95821.09;5059097;28;20036;-80
2024/03/28 10:37:37;;;;;;;5.30;4.82;;;;;;;8.84;81.19;95819.56;5075663;28;20032;-79
2024/03/28 10:40:07;;;;;;;6.03;5.43;;;;;;;8.93;81.64;95841.97;5052499;28;20020;-79
2024/03/28 10:42:36;;;;;;;5.07;4.57;;;;;;;8.94;81.84;95843.56;5082236;28;20036;-78
2024/03/28 10:45:09;;;;;;;6.00;5.50;;;;;;;9.00;82.19;95861.19;5068744;28;20081;-78
2024/03/28 10:47:35;;;;;;;5.95;5.20;;;;;;;8.95;82.44;95850.53;5052091;28;20403;-78
2024/03/28 10:50:10;;;;;;;5.28;4.88;;;;;;;8.82;82.84;95862.00;5059485;28;20118;-79
2024/03/28 10:52:40;;;;;;;5.25;4.75;;;;;;;8.98;82.89;95866.06;5082632;28;20032;-78
2024/03/28 10:55:06;;;;;;;5.95;5.35;;;;;;;8.78;83.52;95852.94;5070174;28;20062;-79
2024/03/28 10:57:32;;;;;;;5.05;4.60;;;;;;;8.90;83.27;95855.97;5067623;28;20046;-78
2024/03/28 10:59:59;;;;;;;5.53;5.00;;;;;;;8.97;83.26;95853.72;5088483;28;20449;-78
2024/03/28 11:02:27;;;;;;;6.90;6.20;;;;;;;8.90;83.62;95869.41;5067450;28;20079;-78
2024/03/28 11:04:53;;;;;;;9.00;7.07;;;;;;;8.98;83.80;95876.81;5070381;28;20062;-79
2024/03/28 11:07:20;;;;;;;5.35;4.85;;;;;;;9.08;84.31;95870.50;5048460;28;20016;-78
2024/03/28 11:09:47;;;;;;;6.07;5.47;;;;;;;8.99;84.37;95830.06;5073077;28;20029;-78
2024/03/28 11:12:12;;;;;;;5.93;5.30;;;;;;;9.09;84.07;95839.84;5045082;28;20020;-79
2024/03/28 11:14:38;;;;;;;6.25;5.65;;;;;;;9.16;84.03;95851.03;5074850;28;20416;-80
2024/03/28 11:17:04;;;;;;;4.88;4.47;;;;;;;9.26;83.95;95857.03;5071778;28;20059;-78
2024/03/28 11:19:29;;;;;;;4.57;4.25;;;;;;;9.27;83.47;95857.81;5076994;28;20039;-79
2024/03/28 11:21:57;;;;;;;7.40;6.55;;;;;;;9.02;83.13;95830.28;5073311;28;20027;-79
2024/03/28 11:24:29;;;;;;;4.80;4.40;;;;;;;9.07;83.22;95823.25;5070052;28;20035;-79
2024/03/28 11:26:56;;;;;;;5.30;4.80;;;;;;;9.29;82.90;95853.75;5073738;28;20038;-79
2024/03/28 11:29:26;;;;;;;4.88;3.88;;;;;;;9.15;82.06;95827.97;5053605;28;20064;-78
2024/03/28 11:32:00;;;;;;;4.97;4.47;;;;;;;9.33;82.03;95867.41;5057468;28;20058;-78
2024/03/28 11:34:29;;;;;;;7.68;5.90;;;;;;;9.40;81.93;95873.19;5061529;28;20032;-79